Immagine casuale
Testata Regione Lazio ARSIAL SIARL

Ultima Misura Rilevata

Temperatura, Umidità, Pioggia, Pressione Radiazione Solare, Venti, Evapotraspirazione, ecc.
Temperature diurne e notturne Direzione vento Legenda
Prov Stazione Data TMin TMed TMax UMed Pioggia PMed
FR ALATRI Basciano 22/10/2017 11,7 15,2 18,9 81 1,6 1.012
FR ALVITO Az. Ist. S. Benedetto 22/10/2017 6,7 12,1 16,5 97 8,4 1.017
FR ANAGNI La Gloria 22/10/2017 9,9 14,4 18,4 91 4,2 1.016
FR ARPINO Vigne Piane 22/10/2017 10,9 14 17 91 11,8 1.012
FR BOVILLE ERNICA Sasso 22/10/2017 10,8 13,8 16,7 88 13,4 1.016
FR ESPERIA Modale 22/10/2017 9,5 13,9 18 77 33,8 1.013
FR PASTENA Acero 22/10/2017 6,7 14 20,3 85 5,8 1.015
FR PIGLIO Civitella 22/10/2017 N.D. N.D. N.D. N.D. N.D. N.D.
FR PONTECORVO Melfi di Sotto 22/10/2017 9,2 14,2 19,3 90 15,2 ----
FR S. ELIA FIUMERAPIDO Portella 22/10/2017 11 14,4 17,3 95 19,4 1.016
FR S. GIORGIO A LIRI Porto 22/10/2017 8,5 12,9 17,3 99 16,8 1.013
FR SGURGOLA Campo Lungo 22/10/2017 9,7 14,4 19,2 89 16,6 ----
FR VALLECORSA Serbatoio comunale 22/10/2017 12,4 15,7 18,4 82 3 1.017
LT APRILIA Le Ferriere 22/10/2017 13 17,5 23,2 81 1,4 1.015
LT CISTERNA B.go Carso 22/10/2017 10,4 15,8 21,4 92 0,9 ----
LT CISTERNA Doganella di Ninfa 22/10/2017 11,7 16,8 21,4 85 1,2 1.016
LT CORI Portone 22/10/2017 12,2 17 20,5 82 3 1.017
LT FONDI Capratica 22/10/2017 10,9 17,2 22,5 85 1,6 1.015
LT FORMIA Loc. Gianola 22/10/2017 10,5 17,1 21,9 83 2,8 ----
LT ITRI Valle Quercia 22/10/2017 14,5 17 20,4 83 1 1.015
LT MAENZA Casacotta 22/10/2017 12,2 16 20,8 89 13,2 1.014
LT MINTURNO Pulcherini 22/10/2017 14,3 17,2 20,1 89 1,8 1.016
LT PONTINIA Cotarda 22/10/2017 10,6 16,9 23,3 81 5,2 1.016
LT SABAUDIA Acquaviva 22/10/2017 N.D. N.D. N.D. N.D. N.D. 1.017
LT SONNINO Frasso 22/10/2017 15,5 18,7 22,9 76 1,8 1.015
RI ACCUMOLI Terracino 22/10/2017 6,4 10,6 14,2 93 30,3 1.014
RI BORGOVELINO Ponte Basso 22/10/2017 7,9 13,2 16,6 92 37,6 1.012
RI CANTALUPO S. Francesco 22/10/2017 10,9 15,4 17,6 99 21 ----
RI CASTEL DI TORA Monte di Tora 22/10/2017 9 12,9 16,6 92 18,8 1.012
RI CASTELNUOVO FARFA C. Spadone 22/10/2017 12,1 16,5 19,9 92 21,6 ----
RI CONFIGNI Portella 22/10/2017 11,7 15,3 17,4 91 21 1.013
RI FARA SABINA Canneto 22/10/2017 13,3 16,7 19,9 85 16 1.021
RI FARA SABINA Sant'Andrea 22/10/2017 13,3 16,5 19,6 89 19,4 ----
RI MONTELEONE S. Prato Camino 22/10/2017 11,1 14,8 19,2 89 27,2 1.013
RI MONTOPOLI IN SABINA Colle Arcone 22/10/2017 13,6 16,5 18,4 95 17,6 ----
RI MONTOPOLI IN SABINA Villa Caprola 22/10/2017 12,9 17 20,1 97 19,2 ----
RI POGGIO CATINO Pastine 22/10/2017 12,2 16,2 18,2 92 18,3 ----
RI POGGIO NATIVO Casali 22/10/2017 11,8 15,5 18,1 95 30,3 ----
RI RIETI Piana di Rieti 22/10/2017 7,7 13,8 17,1 97 N.D. 1.016
RI SCANDRIGLIA Ponticelli 22/10/2017 12,6 16,1 19,3 92 22,9 ----
RM AGOSTA La Cisterna 22/10/2017 8,6 12,7 19 87 9,6 1.012
RM BRACCIANO Prato Pianciano 22/10/2017 9,5 16,3 19,9 87 0,6 1.012
RM CANALE MONTERANO Monte Virginio 22/10/2017 11,4 15,4 18,5 91 5 1.013
RM CERVETERI Campo di Mare 22/10/2017 16,8 18,9 21,6 73 0,1 ----
RM CIVITELLA S.PAOLO Le Cese 22/10/2017 12,7 15,9 18,8 88 9,4 1.013
RM FIUMICINO Maccarese 22/10/2017 14,2 18 22 83 1 1.014
RM FIUMICINO Testa di Lepre 22/10/2017 13,4 17,4 21,2 88 2 ----
RM FRASCATI Prata Porci 22/10/2017 N.D. N.D. N.D. N.D. N.D. N.D.
RM GENAZZANO Coop. La Sonnina 22/10/2017 10,7 14,2 17,7 90 30,8 1.017
RM GROTTAFERRATA Valle Marciana 22/10/2017 10,8 16,6 20,9 86 12,2 1.013
RM LICENZA Colle Franco 22/10/2017 9 13,4 18 84 3,2 1.012
RM MARCELLINA V. Campetella 22/10/2017 12,4 17 21,4 91 4,4 ----
RM MARINO Gotto d'Oro 22/10/2017 11,6 17 20,7 94 5 1.015
RM MONTECOMPATRI Colle Mattia 22/10/2017 11,4 16,9 22,1 84 19,2 1.016
RM MONTECOMPATRI Pantano Borghese 22/10/2017 11,3 17 23,1 84 11 1.014
RM MONTELIBRETTI Bruciati 22/10/2017 12,2 16,8 21,2 88 14 ----
RM MONTEPORZIO Camaldoli 22/10/2017 8,1 14,2 18,7 94 9,8 1.016
RM MONTEROTONDO Grotta Marozza 22/10/2017 13,5 16,9 20,8 83 10 1.017
RM PALOMBARA Fonte Grande 22/10/2017 11,9 15,9 20 84 16,8 ----
RM ROMA Capocotta 22/10/2017 13 16,8 20 86 5,8 ----
RM ROMA Ponte di Nona 22/10/2017 13,8 17,4 21,5 100 6,4 1.015
RM ROMA Via Lanciani 38 22/10/2017 15,7 18,4 21,8 81 0,7 1.015
RM S. GREGORIO C. Faustiniano 22/10/2017 11,1 16,1 19,8 84 13,2 1.012
RM VELLETRI Cantina Sperimentale 22/10/2017 11,8 16 19,4 87 0,8 1.011
RM VELLETRI Prato Lungo 22/10/2017 12,2 17 20,7 79 0 ----
RM ZAGAROLO Santa Apollara 22/10/2017 10,7 14,6 17,3 93 11,4 ----
VT ACQUAPENDENTE Falconiera 22/10/2017 10,5 15,4 19,1 86 1,8 1.011
VT BAGNOREGIO Castell Cellesi 22/10/2017 N.D. N.D. N.D. N.D. N.D. ----
VT BASSANO R. Piano Mola 22/10/2017 9,8 14,3 17 96 20,8 1.013
VT BLERA Puntoni 22/10/2017 10,6 16,6 20 84 1,5 1.012
VT BOLSENA Capone 22/10/2017 10,2 16 21 88 6,4 1.013
VT BOLSENA Rentica 22/10/2017 10,3 16 19,4 87 6,8 ----
VT CANINO Diga Timone 22/10/2017 9,4 17 21,5 84 0,4 1.014
VT CANINO Pianacce 22/10/2017 8,8 17 21,9 83 0,2 1.013
VT CANINO San Valeriano 22/10/2017 10,5 17,2 20,7 91 0,4 ----
VT CELLENO Acquaforte 22/10/2017 9,6 14,7 17,9 92 2,2 ----
VT CORCHIANO Pantalone 22/10/2017 10,2 16 20,2 87 1,2 1.012
VT FARNESE Gressa 22/10/2017 9 15,3 19 88 4 ----
VT FARNESE Pian di Sala 22/10/2017 6,1 14,1 18,6 95 5,6 ----
VT GROTTE DI CASTRO Borghetto 22/10/2017 8,1 15,3 20,3 92 6,8 1.020
VT GROTTE DI CASTRO Purgatorio 22/10/2017 9,4 15 20,8 90 1,4 1.018
VT LATERA Centro Florovivaistico 22/10/2017 7,2 15,1 20 85 7,4 1.010
VT MONTALTO Le Murelle 22/10/2017 13,1 19,3 22,3 82 0 1.014
VT MONTALTO Pescia Romana 22/10/2017 12,5 19,5 24,1 69 0 1.008
VT MONTEFIASCONE Commenda 22/10/2017 9,6 15,8 18,9 92 4 ----
VT RONCIGLIONE Ponterotto 22/10/2017 10,1 15,4 19 84 2 ----
VT SORIANO CIMINO Pantane 22/10/2017 8,9 15,7 20,6 88 1,8 1.013
VT SORIANO CIMINO Poggio di Chia 22/10/2017 9,9 15,5 19,5 89 3,2 ----
VT TARQUINIA Portaccia 22/10/2017 16,6 19,7 22,2 76 0,2 ----
VT TUSCANIA Montebello 22/10/2017 13,3 17,3 19,6 81 0,6 ----
VT VETRALLA Marchionato 22/10/2017 11,2 16,6 19,5 96 0,6 ----
VT VITERBO Pisello 22/10/2017 9,8 15,6 18,5 92 2,2 ----
N.D. = Dati Non Disponibili
---- = Sensore non presente

Le misure esposte sono grezze, ovvero non sono state validate